Time;durP1;ratioP1;P1;durP2;ratioP2;P2;SDS_P1;SDS_P2;PMS_P1;PMS_P2;Temp;Humidity;BMP_temperature;BMP_pressure;BME280_temperature;BME280_humidity;BME280_pressure;Samples;Min_cycle;Max_cycle;Signal;HPM_P1;HPM_P2
2021/11/10 07:24:29;;;;;;;3.87;2.47;;;;;;;14.34;36.84;103100.56;1666930;85;20136;-86
2021/11/10 07:26:55;;;;;;;3.47;2.27;;;;;;;14.41;36.39;103097.25;1669257;84;21934;-87
2021/11/10 07:29:21;;;;;;;3.87;2.47;;;;;;;13.88;37.01;103091.77;1667160;84;20918;-87
2021/11/10 07:31:47;;;;;;;3.58;2.00;;;;;;;14.83;36.30;103101.02;1671677;84;20975;-87
2021/11/10 07:34:13;;;;;;;7.92;2.00;;;;;;;15.24;35.51;103097.29;1670838;84;21058;-87
2021/11/10 07:36:39;;;;;;;6.67;2.75;;;;;;;15.65;35.36;103095.13;1681279;84;21741;-87
2021/11/10 07:39:06;;;;;;;3.42;2.10;;;;;;;16.28;35.02;103091.80;1689454;83;21058;-87
2021/11/10 07:41:34;;;;;;;2.10;1.90;;;;;;;16.80;34.49;103097.34;1685714;83;21073;-88
2021/11/10 07:44:01;;;;;;;3.37;1.70;;;;;;;17.58;34.39;103096.39;1668927;84;21034;-87
2021/11/10 07:46:32;;;;;;;4.50;1.90;;;;;;;18.60;33.56;103100.75;1685551;83;21130;-86
2021/11/10 07:48:58;;;;;;;3.92;1.85;;;;;;;18.97;31.69;103102.91;1618017;86;21638;-86
2021/11/10 07:51:25;;;;;;;4.22;1.90;;;;;;;16.86;31.91;103105.63;1603153;87;21520;-86
2021/11/10 07:53:51;;;;;;;4.70;2.30;;;;;;;15.05;32.57;103112.77;1606670;88;21208;-84
2021/11/10 07:56:17;;;;;;;6.33;2.83;;;;;;;13.69;34.24;103117.97;1606403;88;21099;-86
2021/11/10 07:58:43;;;;;;;8.03;2.65;;;;;;;13.45;35.21;103118.23;1606604;88;21189;-87
2021/11/10 08:01:11;;;;;;;5.05;2.30;;;;;;;12.55;36.79;103122.14;1606494;87;20990;-87
2021/11/10 08:03:37;;;;;;;3.72;2.00;;;;;;;12.51;36.72;103122.27;1606917;88;21055;-86
2021/11/10 08:06:04;;;;;;;6.35;2.92;;;;;;;13.65;37.15;103115.41;1606358;88;21075;-86
2021/11/10 08:08:31;;;;;;;5.10;2.10;;;;;;;13.82;34.87;103116.55;1606715;88;21048;-87
2021/11/10 08:11:00;;;;;;;3.10;1.90;;;;;;;13.35;35.31;103117.84;1606450;87;21181;-86
2021/11/10 08:13:28;;;;;;;5.60;1.72;;;;;;;13.97;34.90;103120.29;1606574;88;21036;-87
2021/11/10 08:15:57;;;;;;;1.75;1.42;;;;;;;12.29;35.79;103127.05;1606648;88;21071;-87
2021/11/10 08:18:24;;;;;;;4.70;2.05;;;;;;;11.14;37.47;103126.18;1606391;88;21637;-87
2021/11/10 08:20:50;;;;;;;4.45;1.75;;;;;;;10.03;38.97;103122.50;1606108;87;21059;-87
2021/11/10 08:23:25;;;;;;;4.25;1.65;;;;;;;9.10;40.07;103118.30;1605256;87;21142;-87
2021/11/10 08:25:51;;;;;;;3.65;1.50;;;;;;;7.75;41.38;103122.27;1626723;86;21070;-87
2021/11/10 08:28:18;;;;;;;3.42;1.52;;;;;;;6.36;43.46;103127.68;1625195;87;21134;-87
2021/11/10 08:30:44;;;;;;;5.35;1.80;;;;;;;5.58;46.28;103129.42;1624680;87;21593;-87
2021/11/10 08:33:10;;;;;;;3.62;1.80;;;;;;;5.38;47.69;103128.03;1624565;87;21130;-87
2021/11/10 08:35:36;;;;;;;5.30;1.50;;;;;;;5.17;49.11;103133.31;1625113;87;21116;-88
2021/11/10 08:38:03;;;;;;;4.42;1.80;;;;;;;4.98;50.33;103127.73;1611480;87;21607;-87
2021/11/10 08:40:30;;;;;;;3.90;1.52;;;;;;;4.92;51.29;103126.20;1590197;87;21131;-86
2021/11/10 08:42:56;;;;;;;6.17;1.70;;;;;;;4.68;52.01;103127.74;1600609;87;21073;-86
2021/11/10 08:45:26;;;;;;;3.55;1.60;;;;;;;4.16;52.49;103126.37;1632141;84;21067;-87
2021/11/10 08:47:55;;;;;;;2.72;1.30;;;;;;;3.72;54.49;103121.47;1652377;84;21480;-87
2021/11/10 08:50:22;;;;;;;5.28;1.62;;;;;;;3.37;56.36;103123.10;1646005;87;21053;-87
2021/11/10 08:52:50;;;;;;;4.15;1.47;;;;;;;3.00;59.20;103122.67;1646720;86;21042;-88
2021/11/10 08:55:17;;;;;;;3.72;1.90;;;;;;;2.95;62.58;103132.92;1646952;87;21129;-86
2021/11/10 08:57:46;;;;;;;4.67;1.98;;;;;;;3.00;67.50;103128.00;1646878;86;21002;-88
2021/11/10 09:00:17;;;;;;;7.20;2.47;;;;;;;3.04;70.99;103132.04;1646414;86;21092;-85
2021/11/10 09:02:44;;;;;;;2.45;1.37;;;;;;;3.15;70.26;103123.86;1646793;86;21404;-85
2021/11/10 09:05:11;;;;;;;3.52;1.60;;;;;;;2.88;67.71;103123.82;1646045;87;21011;-85
2021/11/10 09:07:38;;;;;;;5.20;2.10;;;;;;;2.70;71.01;103132.56;1646323;87;21057;-89
2021/11/10 09:10:08;;;;;;;2.90;1.57;;;;;;;2.58;73.23;103131.06;1646598;87;20963;-88
2021/11/10 09:12:34;;;;;;;5.70;1.72;;;;;;;2.70;76.48;103130.41;1646924;86;21883;-88
2021/11/10 09:15:01;;;;;;;4.90;1.80;;;;;;;2.83;76.54;103130.09;1646216;87;21250;-87
2021/11/10 09:17:34;;;;;;;3.30;1.60;;;;;;;2.79;76.10;103122.88;1646799;86;21034;-88
2021/11/10 09:19:55;;;;;;;2.90;1.55;;;;;;;2.68;75.47;103128.40;1650854;84;21167;-88
2021/11/10 09:22:22;;;;;;;3.30;1.50;;;;;;;2.63;78.07;103127.48;1684625;84;22240;-88
2021/11/10 09:24:48;;;;;;;3.37;2.00;;;;;;;2.80;80.28;103126.40;1649479;85;21121;-87
2021/11/10 09:27:14;;;;;;;4.87;1.60;;;;;;;2.89;78.46;103130.34;1642550;87;21002;-87
2021/11/10 09:29:41;;;;;;;3.37;1.40;;;;;;;2.99;78.03;103122.30;1642374;87;20895;-88
2021/11/10 09:32:07;;;;;;;4.97;1.70;;;;;;;2.98;77.67;103121.97;1642099;87;21011;-88
2021/11/10 09:34:33;;;;;;;4.78;1.85;;;;;;;2.85;77.70;103126.78;1642484;87;21506;-87
2021/11/10 09:36:59;;;;;;;6.45;2.17;;;;;;;2.70;77.05;103127.23;1642414;87;21101;-87
2021/11/10 09:39:25;;;;;;;7.40;2.58;;;;;;;2.56;79.89;103126.86;1642387;86;20886;-88
2021/11/10 09:41:54;;;;;;;3.20;1.47;;;;;;;2.52;81.04;103130.81;1642400;86;20927;-88
2021/11/10 09:44:23;;;;;;;3.40;1.60;;;;;;;2.59;84.60;103131.43;1648056;84;21526;-88
2021/11/10 09:46:51;;;;;;;2.70;1.60;;;;;;;2.65;84.22;103128.19;1665830;84;21152;-88
2021/11/10 09:49:17;;;;;;;3.22;1.52;;;;;;;2.68;82.96;103127.90;1658404;83;21102;-88
2021/11/10 09:51:46;;;;;;;5.05;1.90;;;;;;;2.71;84.24;103126.28;1647387;85;21029;-88
2021/11/10 09:54:13;;;;;;;8.45;4.05;;;;;;;2.76;82.75;103126.32;1665682;84;21569;-87
2021/11/10 09:56:42;;;;;;;4.47;1.80;;;;;;;2.69;82.37;103122.08;1665904;85;21014;-88
2021/11/10 09:59:08;;;;;;;6.25;2.10;;;;;;;2.61;84.14;103127.28;1647544;86;21046;-88
2021/11/10 10:01:37;;;;;;;4.03;1.57;;;;;;;2.64;86.30;103133.64;1647602;86;21149;-87
2021/11/10 10:04:05;;;;;;;4.45;1.50;;;;;;;2.67;86.89;103128.03;1649611;84;21323;-87
2021/11/10 10:06:32;;;;;;;3.22;1.50;;;;;;;2.64;86.79;103129.66;1683680;84;21086;-87
2021/11/10 10:08:59;;;;;;;3.55;1.70;;;;;;;2.66;88.70;103125.03;1657225;84;21046;-88
2021/11/10 10:11:27;;;;;;;3.58;2.05;;;;;;;2.64;86.84;103127.82;1664702;84;21610;-87
2021/11/10 10:13:53;;;;;;;2.67;1.67;;;;;;;2.63;87.39;103126.66;1671872;85;21139;-88
2021/11/10 10:16:25;;;;;;;4.37;1.75;;;;;;;2.61;86.02;103133.44;1667795;84;21175;-87
2021/11/10 10:19:08;;;;;;;2.60;1.57;;;;;;;2.64;86.14;103132.31;1672976;84;21548;-88
2021/11/10 10:21:39;;;;;;;6.12;1.65;;;;;;;2.58;84.98;103137.72;1664494;84;21038;-88
2021/11/10 10:24:03;;;;;;;4.10;2.25;;;;;;;2.61;87.07;103134.77;1686910;84;21050;-87
2021/11/10 10:26:29;;;;;;;3.87;1.60;;;;;;;2.66;87.80;103128.53;1687518;84;21114;-87
2021/11/10 10:29:09;;;;;;;3.80;1.92;;;;;;;2.70;88.17;103125.08;1663002;83;21123;-87
2021/11/10 10:31:41;;;;;;;5.25;2.15;;;;;;;2.72;88.63;103122.63;1664020;85;21064;-88
2021/11/10 10:34:12;;;;;;;5.65;3.00;;;;;;;2.67;87.32;103117.38;1666001;85;21055;-88
2021/11/10 10:36:42;;;;;;;5.03;2.37;;;;;;;2.63;88.66;103126.16;1653319;85;21077;-88
2021/11/10 10:39:14;;;;;;;5.97;1.90;;;;;;;2.68;89.15;103129.73;1652937;85;21553;-88
2021/11/10 10:41:45;;;;;;;8.83;2.90;;;;;;;2.75;88.08;103128.65;1648136;85;21089;-86
2021/11/10 10:44:15;;;;;;;6.20;2.80;;;;;;;2.87;88.98;103140.80;1641040;84;21115;-87
2021/11/10 10:46:46;;;;;;;5.08;2.22;;;;;;;2.89;85.70;103129.52;1602140;86;21144;-88
2021/11/10 10:49:23;;;;;;;4.15;2.55;;;;;;;2.86;87.14;103117.83;1532656;91;21128;-87
2021/11/10 10:51:54;;;;;;;5.78;2.72;;;;;;;2.94;86.18;103116.58;1534742;92;21240;-88
2021/11/10 10:54:29;;;;;;;4.85;2.00;;;;;;;2.94;86.40;103120.56;1545524;92;21119;-88
2021/11/10 10:56:59;;;;;;;3.75;1.98;;;;;;;2.99;87.33;103120.98;1545755;92;21124;-86
2021/11/10 10:59:26;;;;;;;8.30;2.35;;;;;;;2.98;86.30;103119.80;1547115;92;21580;-86
2021/11/10 11:02:00;;;;;;;3.12;1.80;;;;;;;2.91;81.83;103120.86;1547180;92;21698;-86
2021/11/10 11:04:32;;;;;;;5.53;2.62;;;;;;;2.87;81.97;103121.66;1549886;90;21197;-87
2021/11/10 11:07:02;;;;;;;4.72;2.20;;;;;;;2.90;85.27;103127.19;1533482;91;21113;-86
2021/11/10 11:09:37;;;;;;;4.67;2.20;;;;;;;2.92;85.12;103118.07;1540737;92;21654;-87
2021/11/10 11:12:32;;;;;;;5.30;2.62;;;;;;;2.84;83.82;103129.10;1484749;95;21691;-87
2021/11/10 11:17:44;;;;;;;5.28;2.30;;;;;;;2.91;84.21;103119.53;1433739;98;21227;-89
2021/11/10 11:20:23;;;;;;;4.87;2.12;;;;;;;2.90;83.58;103121.36;1438280;99;21152;-87
2021/11/10 11:22:55;;;;;;;5.65;2.67;;;;;;;2.96;85.00;103118.61;1424410;100;21168;-87
2021/11/10 11:25:32;;;;;;;4.53;2.20;;;;;;;3.02;85.94;103110.53;1424911;99;21197;-87
2021/11/10 11:28:03;;;;;;;9.25;2.20;;;;;;;3.05;85.86;103113.73;1418769;100;21138;-87
2021/11/10 11:30:34;;;;;;;8.68;2.12;;;;;;;3.07;84.77;103102.44;1418975;100;22058;-87
2021/11/10 11:33:05;;;;;;;5.72;2.27;;;;;;;3.07;84.34;103101.61;1418826;100;21203;-87
2021/11/10 11:35:38;;;;;;;7.03;3.12;;;;;;;3.05;84.25;103097.74;1419292;100;21096;-86
2021/11/10 11:38:17;;;;;;;5.33;2.17;;;;;;;3.05;83.00;103091.08;1419244;100;25965;-86
2021/11/10 11:40:47;;;;;;;4.00;1.95;;;;;;;3.05;82.63;103092.42;1426365;99;21088;-89
2021/11/10 11:43:17;;;;;;;6.17;2.47;;;;;;;3.04;81.98;103092.58;1441283;99;21182;-86
2021/11/10 11:45:48;;;;;;;6.53;2.25;;;;;;;3.05;82.03;103095.08;1468742;97;21175;-87
2021/11/10 11:48:23;;;;;;;6.03;2.35;;;;;;;3.06;82.85;103095.45;1424934;100;21143;-86
2021/11/10 11:50:52;;;;;;;3.70;2.20;;;;;;;3.08;83.48;103090.78;1425830;99;22269;-86
2021/11/10 11:53:19;;;;;;;8.55;2.95;;;;;;;3.12;82.95;103086.02;1409703;99;21155;-87
2021/11/10 11:55:59;;;;;;;7.47;2.50;;;;;;;3.17;83.89;103089.06;1407373;100;21392;-86
2021/11/10 11:58:32;;;;;;;5.05;2.42;;;;;;;3.16;83.95;103090.05;1445230;98;21155;-87
2021/11/10 12:01:06;;;;;;;5.55;2.60;;;;;;;3.15;83.52;103092.39;1447073;97;21265;-87
2021/11/10 12:03:42;;;;;;;4.75;1.82;;;;;;;3.21;82.11;103097.12;1453942;98;21076;-87
2021/11/10 12:06:14;;;;;;;7.03;2.55;;;;;;;3.24;84.58;103091.98;1448220;98;21171;-87
2021/11/10 12:08:52;;;;;;;4.80;2.52;;;;;;;3.24;82.87;103095.98;1430499;99;21232;-86
2021/11/10 12:11:37;;;;;;;3.55;1.72;;;;;;;3.24;82.62;103101.31;1431852;99;21571;-86
2021/11/10 12:14:31;;;;;;;5.28;2.27;;;;;;;3.21;82.53;103105.58;1445260;96;21092;-87
2021/11/10 12:17:12;;;;;;;5.25;2.22;;;;;;;3.19;81.51;103101.25;1514621;94;21168;-88
2021/11/10 12:19:41;;;;;;;5.22;2.22;;;;;;;3.19;80.50;103099.91;1535607;91;21188;-86
2021/11/10 12:22:20;;;;;;;6.90;2.27;;;;;;;3.16;79.10;103093.55;1559791;90;21348;-86
2021/11/10 12:24:53;;;;;;;4.60;1.85;;;;;;;3.12;79.11;103094.02;1559709;91;21183;-87
2021/11/10 12:27:23;;;;;;;;;;;;;;;3.16;79.71;103099.38;1582516;89;21156;-86
2021/11/10 12:30:06;;;;;;;5.00;2.00;;;;;;;3.16;79.00;103091.39;1569906;91;20165;-87
2021/11/10 12:32:40;;;;;;;10.55;3.80;;;;;;;3.15;78.94;103095.88;1570031;91;21024;-86
2021/11/10 12:35:09;;;;;;;7.15;2.50;;;;;;;3.17;78.16;103096.55;1569342;91;21127;-86
2021/11/10 12:37:39;;;;;;;7.20;2.00;;;;;;;3.18;78.01;103104.08;1569691;91;21124;-85
2021/11/10 12:40:13;;;;;;;4.35;1.90;;;;;;;3.17;78.28;103103.71;1569456;91;21094;-85
2021/11/10 12:43:04;;;;;;;5.08;2.02;;;;;;;3.17;79.38;103106.38;1569922;91;21491;-87
2021/11/10 12:45:38;;;;;;;4.72;1.57;;;;;;;3.12;81.13;103110.00;1621273;86;21095;-85
2021/11/10 12:48:17;;;;;;;3.15;1.70;;;;;;;3.07;82.13;103112.27;1647804;87;21187;-87
2021/11/10 12:50:51;;;;;;;5.30;2.02;;;;;;;3.04;82.43;103112.06;1602294;88;21113;-86
2021/11/10 12:53:40;;;;;;;6.03;2.17;;;;;;;3.04;83.49;103113.39;1602328;88;21093;-88
2021/11/10 12:56:07;;;;;;;3.95;1.60;;;;;;;3.04;83.55;103114.72;1599704;88;21086;-86
2021/11/10 12:58:37;;;;;;;5.47;1.92;;;;;;;3.01;82.80;103127.50;1582494;89;21670;-85
2021/11/10 13:01:15;;;;;;;4.67;1.77;;;;;;;2.98;84.06;103121.97;1599658;89;21146;-86
2021/11/10 13:03:43;;;;;;;4.70;1.90;;;;;;;2.95;84.00;103125.77;1599610;89;21074;-85
2021/11/10 13:09:08;;;;;;;3.25;1.90;;;;;;;2.90;85.76;103136.01;1527428;92;21128;-85
2021/11/10 13:11:36;;;;;;;3.58;1.90;;;;;;;2.92;85.49;103134.55;1527623;93;21706;-86
2021/11/10 13:14:16;;;;;;;6.70;2.25;;;;;;;2.92;86.54;103135.88;1521890;93;21594;-85
2021/11/10 13:17:10;;;;;;;9.93;3.17;;;;;;;2.91;85.96;103138.17;1515502;93;21203;-87
2021/11/10 13:20:03;;;;;;;12.25;4.00;;;;;;;2.85;85.93;103142.25;1466204;96;21795;-86
2021/11/10 13:22:40;;;;;;;10.87;4.30;;;;;;;2.82;84.54;103137.72;1486927;95;21125;-86
2021/11/10 13:25:14;;;;;;;11.38;3.90;;;;;;;2.82;84.79;103139.88;1493372;95;21306;-85
2021/11/10 13:27:48;;;;;;;11.22;3.67;;;;;;;2.78;84.53;103135.84;1465087;95;21314;-86
2021/11/10 13:30:43;;;;;;;8.03;3.12;;;;;;;2.76;85.14;103142.30;1439651;99;21094;-86
2021/11/10 13:33:27;;;;;;;12.93;3.65;;;;;;;2.71;84.16;103142.25;1411637;101;21663;-86
2021/11/10 13:36:05;;;;;;;9.25;3.20;;;;;;;2.68;84.61;103143.88;1394477;102;21099;-85
2021/11/10 13:38:45;;;;;;;6.30;2.55;;;;;;;2.67;84.93;103142.67;1437915;99;21104;-86
2021/11/10 13:41:42;;;;;;;4.53;2.25;;;;;;;2.63;85.63;103147.45;1420860;100;22203;-86
2021/11/10 13:44:14;;;;;;;8.55;3.65;;;;;;;2.59;85.80;103139.88;1399410;101;21218;-87
2021/11/10 13:46:47;;;;;;;9.83;3.40;;;;;;;2.55;86.28;103149.15;1384586;102;21750;-87
2021/11/10 13:49:30;;;;;;;10.35;3.47;;;;;;;2.50;86.92;103158.41;1398078;101;21192;-87
2021/11/10 13:52:13;;;;;;;9.48;3.40;;;;;;;2.44;88.38;103172.30;1367632;104;21494;-87
2021/11/10 13:54:58;;;;;;;12.63;3.75;;;;;;;2.37;88.72;103167.67;1362227;104;22841;-86
2021/11/10 13:57:28;;;;;;;5.65;2.90;;;;;;;2.31;89.73;103170.41;1347199;105;21634;-90
2021/11/10 14:00:01;;;;;;;7.35;2.60;;;;;;;2.27;90.11;103174.34;1347047;105;21262;-86
2021/11/10 14:02:44;;;;;;;4.03;2.10;;;;;;;2.22;89.72;103168.59;1329470;105;22198;-87
2021/11/10 14:05:13;;;;;;;7.22;2.05;;;;;;;2.12;89.77;103169.93;1352553;105;21194;-86
2021/11/10 14:07:41;;;;;;;5.53;2.25;;;;;;;2.03;90.68;103169.44;1332472;106;21625;-87
2021/11/10 14:10:12;;;;;;;5.28;2.40;;;;;;;1.97;92.06;103170.84;1357716;105;21625;-87
2021/11/10 14:12:53;;;;;;;4.70;2.42;;;;;;;1.89;92.66;103172.51;1331916;106;21079;-87
2021/11/10 14:15:35;;;;;;;4.30;2.40;;;;;;;1.84;93.80;103169.41;1327661;106;21992;-87
2021/11/10 14:18:08;;;;;;;5.60;2.15;;;;;;;1.75;94.17;103176.39;1325739;108;21284;-87
2021/11/10 14:20:53;;;;;;;9.43;2.65;;;;;;;1.64;94.69;103172.03;1318360;108;21995;-87
2021/11/10 14:23:30;;;;;;;5.85;2.72;;;;;;;1.57;95.35;103174.40;1313554;108;21699;-87
2021/11/10 14:26:12;;;;;;;6.95;2.77;;;;;;;1.50;96.71;103176.39;1315187;108;21250;-87
2021/11/10 14:28:41;;;;;;;12.20;3.67;;;;;;;1.38;96.17;103173.50;1365632;104;21190;-88
2021/11/10 14:31:23;;;;;;;6.50;2.77;;;;;;;1.26;96.36;103181.56;1362301;105;21161;-88
2021/11/10 14:36:37;;;;;;;5.62;2.80;;;;;;;0.97;98.65;103184.58;1302664;109;21749;-87
2021/11/10 14:41:39;;;;;;;6.17;2.72;;;;;;;0.75;100.00;103190.91;1289757;111;20731;-87
2021/11/10 14:44:12;;;;;;;6.95;2.70;;;;;;;0.62;100.00;103192.44;1292117;109;21187;-87
2021/11/10 14:46:41;;;;;;;6.35;2.80;;;;;;;0.52;100.00;103198.98;1313994;108;21744;-86
2021/11/10 14:49:18;;;;;;;6.90;2.87;;;;;;;0.40;100.00;103195.55;1317225;106;21185;-86
2021/11/10 14:51:54;;;;;;;7.22;2.50;;;;;;;0.31;100.00;103187.52;1290608;110;21127;-87
2021/11/10 14:54:36;;;;;;;5.95;2.60;;;;;;;0.18;100.00;103193.85;1308469;105;21171;-86
2021/11/10 14:57:11;;;;;;;5.67;2.55;;;;;;;0.08;100.00;103195.56;1358781;105;21126;-87
2021/11/10 14:59:44;;;;;;;7.33;2.58;;;;;;;-0.01;100.00;103195.83;1364514;105;21229;-86
2021/11/10 15:02:17;;;;;;;6.87;2.35;;;;;;;-0.12;100.00;103202.52;1365255;105;27558;-87
2021/11/10 15:05:06;;;;;;;7.92;2.45;;;;;;;-0.20;100.00;103203.61;1365175;104;21123;-86
2021/11/10 15:07:39;;;;;;;10.72;3.00;;;;;;;-0.28;100.00;103212.66;1345843;105;21136;-88
2021/11/10 15:10:15;;;;;;;9.48;2.62;;;;;;;-0.35;100.00;103208.34;1342647;106;21137;-86
2021/11/10 15:12:42;;;;;;;9.45;2.85;;;;;;;-0.45;100.00;103207.38;1342805;105;22110;-85
2021/11/10 15:15:25;;;;;;;15.30;3.42;;;;;;;-0.50;100.00;103197.62;1500584;92;21230;-88
2021/11/10 15:17:51;;;;;;;7.95;2.50;;;;;;;-0.57;100.00;103193.30;1524129;92;21096;-89
2021/11/10 15:20:21;;;;;;;5.97;2.60;;;;;;;-0.66;100.00;103199.81;1519730;92;21144;-90
2021/11/10 15:22:56;;;;;;;11.22;2.90;;;;;;;-0.76;100.00;103207.16;1528255;92;21671;-89
2021/11/10 15:25:26;;;;;;;5.60;3.12;;;;;;;-0.78;100.00;103204.27;1474233;97;21192;-90
2021/11/10 15:27:58;;;;;;;9.55;3.45;;;;;;;-0.81;100.00;103213.78;1471830;96;21706;-90
2021/11/10 15:30:29;;;;;;;9.30;3.52;;;;;;;-0.87;100.00;103208.48;1499538;95;21149;-88
2021/11/10 15:33:02;;;;;;;12.93;4.35;;;;;;;-0.93;100.00;103205.83;1507974;94;21121;-88
2021/11/10 15:35:36;;;;;;;14.03;4.10;;;;;;;-1.01;100.00;103213.51;1494811;95;21808;-89
2021/11/10 15:38:00;;;;;;;15.23;4.00;;;;;;;-1.05;100.00;103221.34;1494582;95;21022;-85
2021/11/10 15:40:26;;;;;;;13.25;3.77;;;;;;;-1.08;100.00;103217.60;1494575;95;21520;-86
2021/11/10 15:42:52;;;;;;;13.85;4.62;;;;;;;-1.11;100.00;103213.03;1490970;95;21642;-86
2021/11/10 15:45:19;;;;;;;11.53;3.70;;;;;;;-1.20;100.00;103220.71;1492094;95;21114;-86
2021/11/10 15:47:47;;;;;;;16.02;5.58;;;;;;;-1.24;100.00;103219.72;1496142;95;21091;-86
2021/11/10 15:50:14;;;;;;;17.70;5.20;;;;;;;-1.30;100.00;103228.97;1497979;94;21222;-87
2021/11/10 15:52:40;;;;;;;17.00;6.65;;;;;;;-1.30;100.00;103234.73;1494693;94;21174;-87
2021/11/10 15:55:10;;;;;;;17.65;6.70;;;;;;;-1.35;100.00;103236.43;1493564;94;21108;-87
2021/11/10 15:57:38;;;;;;;23.20;7.60;;;;;;;-1.39;100.00;103230.98;1494571;94;21061;-88
2021/11/10 16:00:09;;;;;;;17.48;6.83;;;;;;;-1.39;100.00;103230.50;1474729;94;21592;-87
2021/11/10 16:02:36;;;;;;;14.90;6.47;;;;;;;-1.40;100.00;103224.86;1512317;91;21140;-87
2021/11/10 16:05:03;;;;;;;18.98;6.85;;;;;;;-1.39;100.00;103222.56;1535446;91;21527;-87
2021/11/10 16:07:29;;;;;;;15.25;6.40;;;;;;;-1.45;100.00;103228.32;1540064;91;21135;-86
2021/11/10 16:09:55;;;;;;;16.95;6.92;;;;;;;-1.51;100.00;103224.81;1535127;91;20926;-86
2021/11/10 16:12:21;;;;;;;16.55;6.80;;;;;;;-1.55;100.00;103228.66;1538860;91;21044;-87
2021/11/10 16:14:47;;;;;;;19.87;7.90;;;;;;;-1.57;100.00;103237.18;1533537;92;21432;-87
2021/11/10 16:17:13;;;;;;;20.80;7.55;;;;;;;-1.63;100.00;103231.86;1537616;91;21117;-87
2021/11/10 16:19:41;;;;;;;24.77;9.13;;;;;;;-1.68;100.00;103234.00;1534457;91;21117;-87
2021/11/10 16:22:07;;;;;;;30.55;10.48;;;;;;;-1.70;100.00;103232.45;1565434;89;21114;-87
2021/11/10 16:24:37;;;;;;;28.25;11.28;;;;;;;-1.72;100.00;103229.07;1598603;89;21167;-88
2021/11/10 16:29:31;;;;;;;39.80;14.20;;;;;;;-1.78;100.00;103224.23;1588934;89;21070;-88
2021/11/10 16:34:42;;;;;;;34.65;12.35;;;;;;;-1.84;100.00;103225.05;1668455;86;21455;-88
2021/11/10 16:37:09;;;;;;;34.33;10.23;;;;;;;-1.89;100.00;103223.70;1668688;86;20881;-88
2021/11/10 16:39:35;;;;;;;30.92;12.20;;;;;;;-1.96;100.00;103223.31;1668452;86;21181;-91
2021/11/10 16:42:02;;;;;;;31.23;12.10;;;;;;;-1.97;100.00;103229.56;1668275;86;21223;-89
2021/11/10 16:44:28;;;;;;;29.50;10.63;;;;;;;-2.00;100.00;103231.56;1664257;86;21693;-88
2021/11/10 16:46:54;;;;;;;32.50;11.50;;;;;;;-2.05;100.00;103235.88;1654457;86;20900;-88
2021/11/10 16:49:19;;;;;;;30.68;11.80;;;;;;;-2.05;100.00;103241.16;1655655;86;21653;-88
2021/11/10 16:51:45;;;;;;;31.42;11.00;;;;;;;-2.05;100.00;103250.41;1654263;86;21427;-88
2021/11/10 16:54:11;;;;;;;34.75;11.40;;;;;;;-2.06;100.00;103256.63;1630908;86;21734;-88
2021/11/10 16:56:37;;;;;;;37.95;13.62;;;;;;;-2.06;100.00;103258.81;1654613;86;20931;-88
2021/11/10 16:59:03;;;;;;;34.95;13.53;;;;;;;-2.06;100.00;103252.66;1655240;85;21027;-88
2021/11/10 17:01:31;;;;;;;26.48;11.45;;;;;;;-2.08;100.00;103258.55;1655100;86;20972;-88
2021/11/10 17:03:57;;;;;;;30.75;12.53;;;;;;;-2.15;100.00;103263.41;1654969;86;21162;-88
2021/11/10 17:06:24;;;;;;;29.72;12.40;;;;;;;-2.17;100.00;103269.78;1652111;86;21661;-88
2021/11/10 17:08:51;;;;;;;33.45;12.10;;;;;;;-2.19;100.00;103267.72;1643552;86;21051;-89
2021/11/10 17:11:17;;;;;;;31.00;11.08;;;;;;;-2.23;100.00;103257.86;1646864;86;21545;-89
2021/11/10 17:13:43;;;;;;;27.73;11.45;;;;;;;-2.23;100.00;103260.50;1643916;87;20972;-88
2021/11/10 17:16:12;;;;;;;30.15;11.88;;;;;;;-2.27;100.00;103266.09;1643794;86;21207;-87
2021/11/10 17:18:38;;;;;;;25.65;12.18;;;;;;;-2.27;100.00;103271.38;1643462;87;21438;-89
2021/11/10 17:21:04;;;;;;;27.42;11.28;;;;;;;-2.30;100.00;103276.39;1643700;86;21115;-89
2021/11/10 17:23:31;;;;;;;27.05;11.22;;;;;;;-2.34;100.00;103267.84;1643984;86;21064;-89
2021/11/10 17:25:57;;;;;;;33.05;12.78;;;;;;;-2.34;100.00;103263.89;1643794;86;21100;-88
2021/11/10 17:28:24;;;;;;;28.55;11.78;;;;;;;-2.33;100.00;103255.48;1646228;86;21814;-88
2021/11/10 17:30:51;;;;;;;24.40;10.72;;;;;;;-2.35;100.00;103256.93;1671868;84;21494;-88
2021/11/10 17:33:18;;;;;;;30.25;12.43;;;;;;;-2.43;100.00;103255.78;1684472;84;21479;-89
2021/11/10 17:35:47;;;;;;;35.50;14.80;;;;;;;-2.48;100.00;103253.94;1684722;84;21040;-89
2021/11/10 17:38:15;;;;;;;51.77;22.75;;;;;;;-2.53;100.00;103260.39;1685104;85;21596;-89
2021/11/10 17:40:43;;;;;;;44.85;20.90;;;;;;;-2.57;100.00;103261.54;1685615;84;21835;-89
2021/11/10 17:43:10;;;;;;;58.75;23.55;;;;;;;-2.58;100.00;103251.11;1679332;84;21058;-89
2021/11/10 17:45:38;;;;;;;59.35;23.25;;;;;;;-2.63;100.00;103250.09;1678254;84;21560;-89
2021/11/10 17:48:06;;;;;;;53.20;21.20;;;;;;;-2.63;100.00;103247.94;1662322;85;21076;-89
2021/11/10 17:50:32;;;;;;;64.90;25.02;;;;;;;-2.63;100.00;103257.17;1665063;84;21095;-88
2021/11/10 17:53:00;;;;;;;33.95;14.38;;;;;;;-2.57;100.00;103251.47;1675650;85;21223;-88
2021/11/10 17:55:26;;;;;;;45.28;15.85;;;;;;;-2.47;100.00;103243.28;1675391;85;21037;-88
2021/11/10 17:57:57;;;;;;;88.10;25.20;;;;;;;-2.39;100.00;103246.68;1675522;85;21056;-88
2021/11/10 18:00:28;;;;;;;116.05;35.58;;;;;;;-2.29;100.00;103245.93;1675718;85;21472;-88
2021/11/10 18:03:18;;;;;;;95.25;28.83;;;;;;;-2.19;100.00;103242.14;1667273;84;21224;-88
2021/11/10 18:05:44;;;;;;;76.95;25.65;;;;;;;-2.09;100.00;103247.15;1676046;84;21151;-89
2021/11/10 18:08:09;;;;;;;88.78;27.85;;;;;;;-2.07;100.00;103254.95;1676056;85;21642;-89
2021/11/10 18:10:36;;;;;;;81.25;26.70;;;;;;;-2.02;100.00;103250.66;1676164;85;21013;-89
2021/11/10 18:13:02;;;;;;;78.85;27.73;;;;;;;-2.04;100.00;103262.65;1675687;85;21121;-89
2021/11/10 18:15:28;;;;;;;72.60;25.88;;;;;;;-1.98;100.00;103252.95;1678963;85;20964;-89
2021/11/10 18:17:58;;;;;;;118.87;38.70;;;;;;;-1.96;100.00;103268.23;1675792;84;21532;-90
2021/11/10 18:20:24;;;;;;;93.37;31.17;;;;;;;-1.96;100.00;103266.06;1670336;84;21130;-90
2021/11/10 18:22:51;;;;;;;103.65;33.73;;;;;;;-1.93;100.00;103262.72;1675895;84;21016;-89
2021/11/10 18:25:21;;;;;;;122.10;40.83;;;;;;;-1.90;100.00;103261.17;1681964;84;21068;-90
2021/11/10 18:27:48;;;;;;;121.28;42.98;;;;;;;-1.88;100.00;103261.91;1684594;84;21727;-90
2021/11/10 18:30:14;;;;;;;126.38;43.08;;;;;;;-1.86;100.00;103266.59;1656060;85;21183;-90
2021/11/10 18:32:42;;;;;;;215.45;70.87;;;;;;;-1.84;100.00;103262.05;1686306;84;21084;-89
2021/11/10 18:35:11;;;;;;;167.07;54.20;;;;;;;-1.83;100.00;103272.13;1684873;84;21025;-90
2021/11/10 18:37:37;;;;;;;159.87;54.45;;;;;;;-1.80;100.00;103269.75;1684742;84;20989;-90
2021/11/10 18:40:09;;;;;;;170.05;55.80;;;;;;;-1.79;100.00;103271.42;1686177;84;21044;-89
2021/11/10 18:42:35;;;;;;;164.97;52.25;;;;;;;-1.75;100.00;103275.55;1684939;84;21300;-89
2021/11/10 18:45:01;;;;;;;144.02;49.27;;;;;;;-1.71;100.00;103271.72;1686484;84;20949;-89
2021/11/10 18:47:27;;;;;;;138.00;47.10;;;;;;;-1.68;100.00;103274.13;1684600;84;21032;-89
2021/11/10 18:49:53;;;;;;;158.90;51.48;;;;;;;-1.67;100.00;103284.61;1686305;84;20989;-89
2021/11/10 18:52:20;;;;;;;153.55;52.58;;;;;;;-1.64;100.00;103273.81;1684914;85;21115;-89
2021/11/10 18:54:46;;;;;;;147.17;49.55;;;;;;;-1.59;100.00;103272.12;1684489;84;21835;-91
2021/11/10 18:57:12;;;;;;;151.93;50.95;;;;;;;-1.61;100.00;103262.17;1684584;84;21001;-91
2021/11/10 18:59:38;;;;;;;133.45;47.10;;;;;;;-1.67;100.00;103261.30;1685021;84;20965;-91
2021/11/10 19:02:06;;;;;;;140.50;48.23;;;;;;;-1.68;100.00;103263.08;1685714;84;21036;-89
2021/11/10 19:10:13;;;;;;;124.35;43.20;;;;;;;-1.78;100.00;103271.81;1589462;89;21202;-89
2021/11/10 19:21:02;;;;;;;101.55;36.68;;;;;;;-2.01;100.00;103270.34;1591351;89;21154;-89
2021/11/10 19:23:22;;;;;;;101.12;36.45;;;;;;;-2.05;100.00;103271.54;1600949;87;21084;-88
2021/11/10 19:25:48;;;;;;;90.00;34.55;;;;;;;-2.07;100.00;103272.11;1603756;89;20910;-88
2021/11/10 19:28:14;;;;;;;94.62;34.25;;;;;;;-2.11;100.00;103279.91;1597709;88;21802;-88